Time;durP1;ratioP1;P1;durP2;ratioP2;P2;SDS_P1;SDS_P2;PMS_P1;PMS_P2;Temp;Humidity;BMP_temperature;BMP_pressure;BME280_temperature;BME280_humidity;BME280_pressure;Samples;Min_cycle;Max_cycle;Signal;HPM_P1;HPM_P2
2022/09/29 00:00:22;;;;;;;11.08;8.20;;;;;;;11.37;83.68;97133.59;1680185;85;25768;-79
2022/09/29 00:02:48;;;;;;;16.60;10.00;;;;;;;11.40;83.70;97141.70;1680529;85;25697;-79
2022/09/29 00:05:15;;;;;;;13.40;8.75;;;;;;;11.40;83.64;97138.96;1680297;85;25855;-78
2022/09/29 00:07:41;;;;;;;13.65;8.63;;;;;;;11.37;83.56;97125.95;1680737;85;25677;-76
2022/09/29 00:10:08;;;;;;;11.83;7.95;;;;;;;11.37;83.80;97128.70;1680149;85;27441;-75
2022/09/29 00:12:35;;;;;;;11.95;7.45;;;;;;;11.34;83.79;97131.56;1680265;85;25692;-76
2022/09/29 00:15:01;;;;;;;11.57;8.28;;;;;;;11.27;83.63;97130.03;1680370;85;25507;-75
2022/09/29 00:17:27;;;;;;;14.50;11.15;;;;;;;11.22;83.74;97124.81;1680778;85;25755;-75
2022/09/29 00:19:53;;;;;;;10.35;7.35;;;;;;;11.14;83.89;97130.73;1680367;85;25709;-76
2022/09/29 00:22:19;;;;;;;26.52;14.93;;;;;;;11.08;83.71;97143.88;1680554;85;27398;-69
2022/09/29 00:24:49;;;;;;;22.13;11.97;;;;;;;11.06;83.75;97146.77;1680361;85;25882;-70
2022/09/29 00:27:18;;;;;;;8.90;5.78;;;;;;;11.01;83.85;97147.27;1680783;85;25455;-72
2022/09/29 00:29:44;;;;;;;17.95;12.43;;;;;;;10.99;83.87;97152.86;1678779;85;25761;-70
2022/09/29 00:32:11;;;;;;;13.15;8.00;;;;;;;10.99;83.96;97150.12;1680632;85;25681;-69
2022/09/29 00:34:37;;;;;;;9.68;6.35;;;;;;;11.00;84.01;97153.09;1680611;85;27655;-70
2022/09/29 00:37:04;;;;;;;8.93;5.92;;;;;;;11.02;84.22;97155.70;1680693;85;25689;-70
2022/09/29 00:39:30;;;;;;;9.80;6.37;;;;;;;11.02;84.26;97157.63;1680230;85;25716;-70
2022/09/29 00:41:57;;;;;;;9.88;6.62;;;;;;;11.01;84.34;97153.31;1680374;85;26632;-68
2022/09/29 00:45:01;;;;;;;10.18;6.92;;;;;;;10.97;84.52;97151.84;1680283;85;25671;-71
2022/09/29 00:47:29;;;;;;;13.78;9.23;;;;;;;10.98;84.49;97156.20;1680647;85;27476;-70
2022/09/29 00:50:12;;;;;;;15.38;12.47;;;;;;;10.97;84.66;97160.06;1675982;85;25501;-68
2022/09/29 00:52:49;;;;;;;23.02;20.55;;;;;;;10.98;84.69;97165.78;1675609;85;25621;-68
2022/09/29 00:55:24;;;;;;;21.02;13.05;;;;;;;10.97;84.91;97166.14;1675562;85;25759;-69
2022/09/29 00:58:04;;;;;;;18.35;11.33;;;;;;;10.97;84.96;97171.63;1675381;85;25621;-70
2022/09/29 01:00:31;;;;;;;15.45;9.75;;;;;;;10.93;85.17;97166.04;1673885;85;29574;-69
2022/09/29 01:03:08;;;;;;;12.28;7.67;;;;;;;10.90;85.20;97162.63;1675657;85;25708;-66
2022/09/29 01:05:38;;;;;;;11.88;7.12;;;;;;;10.86;85.22;97167.23;1673921;85;25652;-68
2022/09/29 01:08:18;;;;;;;10.48;6.87;;;;;;;10.81;85.50;97168.29;1675776;85;25721;-68
2022/09/29 01:10:47;;;;;;;8.58;6.30;;;;;;;10.77;85.52;97169.55;1675554;85;25467;-68
2022/09/29 01:13:14;;;;;;;10.93;6.17;;;;;;;10.75;85.64;97169.70;1675761;85;27388;-68
2022/09/29 01:15:40;;;;;;;8.53;5.90;;;;;;;10.73;85.65;97167.30;1675233;85;25720;-66
2022/09/29 01:18:06;;;;;;;9.28;6.85;;;;;;;10.70;85.65;97170.75;1675477;85;25497;-66
2022/09/29 01:20:38;;;;;;;9.33;6.10;;;;;;;10.67;85.76;97164.60;1675438;85;25765;-66
2022/09/29 01:23:47;;;;;;;11.10;7.05;;;;;;;10.68;85.83;97164.03;1674347;85;25721;-66
2022/09/29 01:26:48;;;;;;;12.07;7.55;;;;;;;10.69;85.95;97160.14;1567392;91;27505;-65
2022/09/29 01:29:56;;;;;;;17.25;9.30;;;;;;;10.66;86.12;97163.82;1565695;91;25982;-65
2022/09/29 01:32:39;;;;;;;13.08;6.95;;;;;;;10.62;86.10;97168.98;1567127;91;25752;-65
2022/09/29 01:35:40;;;;;;;10.32;6.17;;;;;;;10.60;86.18;97161.12;1567622;91;25763;-66
2022/09/29 01:38:31;;;;;;;9.65;5.40;;;;;;;10.60;86.21;97158.94;1567502;91;25557;-66
2022/09/29 01:41:30;;;;;;;6.75;4.10;;;;;;;10.61;86.15;97161.89;1566939;91;28050;-65
2022/09/29 01:44:21;;;;;;;5.53;3.30;;;;;;;10.56;86.02;97153.95;1567365;91;25748;-65
2022/09/29 01:47:19;;;;;;;4.92;3.22;;;;;;;10.53;86.02;97160.91;1567283;91;25602;-64
2022/09/29 01:49:50;;;;;;;4.28;3.45;;;;;;;10.52;85.92;97166.17;1566865;91;25585;-62
2022/09/29 01:52:23;;;;;;;6.03;3.10;;;;;;;10.44;85.58;97167.89;1566347;91;25677;-64
2022/09/29 01:55:03;;;;;;;5.22;4.45;;;;;;;10.38;85.68;97168.72;1567483;91;27655;-64
2022/09/29 01:57:34;;;;;;;9.63;8.10;;;;;;;10.30;85.56;97177.87;1566931;91;25736;-65
2022/09/29 02:00:09;;;;;;;4.60;3.10;;;;;;;10.29;85.87;97188.61;1600480;85;25690;-63
2022/09/29 02:03:25;;;;;;;11.25;5.42;;;;;;;10.25;86.01;97191.82;1680255;85;25740;-64
2022/09/29 02:06:00;;;;;;;4.78;3.10;;;;;;;10.16;85.88;97192.75;1680569;85;25648;-63
2022/09/29 02:08:43;;;;;;;4.58;3.22;;;;;;;10.11;85.84;97186.73;1675806;85;27452;-64
2022/09/29 02:11:12;;;;;;;6.28;4.20;;;;;;;10.10;85.91;97185.92;1679647;85;25701;-63
2022/09/29 02:13:44;;;;;;;6.10;3.98;;;;;;;10.14;86.02;97184.67;1680428;85;25650;-63
2022/09/29 02:16:15;;;;;;;3.55;2.65;;;;;;;10.16;85.86;97191.38;1678880;85;26946;-63
2022/09/29 02:19:03;;;;;;;4.12;3.50;;;;;;;10.18;85.77;97182.83;1680729;85;25669;-63
2022/09/29 02:21:30;;;;;;;8.70;7.62;;;;;;;10.21;85.71;97192.27;1679264;85;29567;-63
2022/09/29 02:23:57;;;;;;;4.85;4.10;;;;;;;10.22;85.79;97188.41;1680097;85;25687;-63
2022/09/29 02:26:32;;;;;;;7.28;4.17;;;;;;;10.23;85.69;97175.74;1680488;85;25669;-63
2022/09/29 02:29:01;;;;;;;4.87;2.90;;;;;;;10.26;85.73;97167.40;1680241;85;26555;-63
2022/09/29 02:31:28;;;;;;;4.25;2.85;;;;;;;10.25;85.57;97155.64;1680453;85;26759;-63
2022/09/29 02:33:54;;;;;;;3.12;2.25;;;;;;;10.26;85.43;97153.70;1680408;85;28315;-63
2022/09/29 02:37:00;;;;;;;4.62;3.00;;;;;;;10.22;85.22;97154.19;1680049;85;25713;-63
2022/09/29 02:39:35;;;;;;;4.83;2.83;;;;;;;10.17;85.34;97151.91;1680142;85;25668;-64
2022/09/29 02:42:27;;;;;;;7.03;2.85;;;;;;;10.10;85.48;97158.55;1677502;85;26630;-64
2022/09/29 02:45:27;;;;;;;5.60;3.00;;;;;;;10.08;85.73;97158.13;1680543;85;25459;-64
2022/09/29 02:48:23;;;;;;;3.93;2.73;;;;;;;10.01;85.80;97154.59;1680526;85;28226;-63
2022/09/29 02:50:57;;;;;;;4.42;2.90;;;;;;;9.94;85.98;97152.22;1674822;85;25644;-64
2022/09/29 02:53:50;;;;;;;6.12;2.80;;;;;;;9.91;86.11;97159.97;1674730;85;25691;-62
2022/09/29 02:56:37;;;;;;;5.03;3.90;;;;;;;9.89;86.24;97158.17;1675254;85;25638;-64
2022/09/29 02:59:23;;;;;;;9.00;6.83;;;;;;;9.87;86.33;97160.45;1675439;85;25670;-64
2022/09/29 03:01:52;;;;;;;4.97;3.80;;;;;;;9.88;86.33;97162.03;1674795;85;26919;-64
2022/09/29 03:04:21;;;;;;;6.00;3.80;;;;;;;9.91;86.31;97156.46;1675864;85;25638;-64
2022/09/29 03:06:48;;;;;;;7.92;4.67;;;;;;;9.89;86.40;97151.33;1675645;85;25623;-64
2022/09/29 03:09:14;;;;;;;6.58;4.30;;;;;;;9.88;86.34;97171.61;1675585;85;25769;-63
2022/09/29 03:11:41;;;;;;;5.92;3.40;;;;;;;9.87;86.30;97165.92;1675332;85;25709;-64
2022/09/29 03:14:08;;;;;;;5.80;3.20;;;;;;;9.87;86.43;97171.39;1675619;85;27476;-64
2022/09/29 03:16:36;;;;;;;6.20;2.90;;;;;;;9.89;86.47;97180.63;1675265;85;25644;-64
2022/09/29 03:19:04;;;;;;;5.22;3.10;;;;;;;9.89;86.40;97178.70;1675383;85;25522;-64
2022/09/29 03:21:31;;;;;;;4.42;3.10;;;;;;;9.92;86.55;97168.98;1675350;85;25833;-64
2022/09/29 03:23:58;;;;;;;7.60;3.55;;;;;;;9.99;86.47;97173.89;1675619;85;25670;-64
2022/09/29 03:26:24;;;;;;;6.85;4.12;;;;;;;10.01;86.36;97175.69;1675728;85;27543;-64
2022/09/29 03:28:51;;;;;;;11.15;8.70;;;;;;;10.04;86.25;97173.06;1675400;85;25914;-64
2022/09/29 03:31:19;;;;;;;17.87;14.65;;;;;;;10.09;86.30;97181.60;1675797;85;25631;-65
2022/09/29 03:33:45;;;;;;;9.43;5.05;;;;;;;10.09;86.30;97182.97;1675767;85;25730;-65
2022/09/29 03:36:12;;;;;;;9.73;4.75;;;;;;;10.10;86.19;97173.61;1675403;85;25459;-65
2022/09/29 03:38:38;;;;;;;9.65;4.30;;;;;;;10.12;86.29;97172.70;1675369;85;27453;-64
2022/09/29 03:41:06;;;;;;;7.20;3.20;;;;;;;10.14;86.24;97169.61;1675267;85;25613;-66
2022/09/29 03:43:32;;;;;;;6.20;3.60;;;;;;;10.16;86.20;97167.30;1675749;85;25527;-65
2022/09/29 03:45:59;;;;;;;5.55;3.60;;;;;;;10.14;86.22;97177.23;1675670;85;26573;-65
2022/09/29 03:48:29;;;;;;;6.85;3.77;;;;;;;10.11;86.03;97171.67;1675610;85;25439;-66
2022/09/29 03:50:54;;;;;;;6.08;3.70;;;;;;;10.08;86.31;97171.81;1679262;85;25843;-64
2022/09/29 03:53:20;;;;;;;6.65;3.40;;;;;;;10.10;86.55;97168.72;1680328;85;25794;-65
2022/09/29 03:55:48;;;;;;;5.22;3.70;;;;;;;10.08;86.15;97173.73;1680588;85;25598;-65
2022/09/29 03:58:16;;;;;;;6.55;3.50;;;;;;;10.04;86.25;97179.91;1680194;85;25721;-65
2022/09/29 04:00:42;;;;;;;4.45;3.35;;;;;;;10.04;86.25;97169.52;1680622;85;25535;-66
2022/09/29 04:03:08;;;;;;;5.37;3.20;;;;;;;10.03;86.21;97167.38;1680267;85;26775;-65
2022/09/29 04:05:37;;;;;;;6.55;4.35;;;;;;;10.06;86.25;97175.45;1680720;85;25506;-66
2022/09/29 04:08:07;;;;;;;21.25;10.53;;;;;;;10.09;86.26;97181.60;1680491;85;25465;-65
2022/09/29 04:10:37;;;;;;;7.87;4.50;;;;;;;10.12;86.06;97193.23;1680697;85;26634;-65
2022/09/29 04:13:04;;;;;;;6.92;4.83;;;;;;;10.12;86.04;97191.86;1679589;85;25653;-66
2022/09/29 04:15:30;;;;;;;6.00;4.08;;;;;;;10.11;85.94;97203.96;1680477;85;28215;-65
2022/09/29 04:17:57;;;;;;;4.55;3.05;;;;;;;10.12;86.04;97200.07;1680270;85;26084;-64
2022/09/29 04:20:23;;;;;;;4.30;3.02;;;;;;;10.19;86.14;97193.98;1680309;85;25758;-66
2022/09/29 04:22:49;;;;;;;5.40;3.27;;;;;;;10.17;86.04;97202.55;1680511;85;25761;-65
2022/09/29 04:25:16;;;;;;;5.33;3.25;;;;;;;10.14;86.03;97191.52;1680652;85;25667;-65
2022/09/29 04:27:42;;;;;;;5.05;3.40;;;;;;;10.12;85.95;97187.75;1680444;85;27612;-66
2022/09/29 04:30:10;;;;;;;10.25;7.28;;;;;;;10.09;85.93;97198.59;1680086;85;25685;-65
2022/09/29 04:32:37;;;;;;;17.23;12.78;;;;;;;10.06;86.07;97206.13;1681014;85;25492;-65
2022/09/29 04:35:05;;;;;;;9.15;6.03;;;;;;;10.02;86.00;97204.67;1680219;85;25666;-64
2022/09/29 04:37:31;;;;;;;6.22;3.77;;;;;;;10.00;86.03;97206.94;1680518;85;25436;-65
2022/09/29 04:39:58;;;;;;;6.58;3.30;;;;;;;10.00;85.97;97205.58;1680525;85;28230;-65
2022/09/29 04:42:24;;;;;;;5.10;3.20;;;;;;;10.03;85.99;97219.94;1680220;85;26049;-62
2022/09/29 04:44:50;;;;;;;3.95;3.12;;;;;;;10.07;86.18;97211.84;1680511;85;25666;-68
2022/09/29 04:47:17;;;;;;;4.65;3.42;;;;;;;10.09;85.98;97214.45;1680326;85;26583;-65
2022/09/29 04:49:43;;;;;;;5.05;3.40;;;;;;;10.11;85.89;97214.10;1680232;85;25793;-62
2022/09/29 04:52:11;;;;;;;4.97;3.72;;;;;;;10.13;85.91;97216.71;1680687;85;28136;-65
2022/09/29 04:54:38;;;;;;;7.87;4.80;;;;;;;10.17;85.78;97219.56;1680163;85;27206;-65
2022/09/29 04:57:06;;;;;;;5.72;4.17;;;;;;;10.20;85.75;97218.87;1680211;85;25488;-65
2022/09/29 04:59:33;;;;;;;8.23;5.28;;;;;;;10.16;85.53;97220.13;1680686;85;26471;-66
2022/09/29 05:02:18;;;;;;;14.40;10.90;;;;;;;10.12;85.46;97224.70;1680785;85;25431;-66
2022/09/29 05:04:46;;;;;;;8.70;5.97;;;;;;;10.09;85.63;97229.50;1680270;85;27495;-66
2022/09/29 05:07:14;;;;;;;14.73;11.18;;;;;;;10.07;85.68;97223.56;1680555;85;25682;-65
2022/09/29 05:09:41;;;;;;;16.10;10.10;;;;;;;10.08;85.90;97227.11;1680179;85;25448;-65
2022/09/29 05:12:07;;;;;;;10.28;5.00;;;;;;;10.07;85.95;97223.56;1680511;85;25761;-65
2022/09/29 05:14:33;;;;;;;10.43;4.70;;;;;;;10.07;85.97;97219.45;1680349;85;25453;-66
2022/09/29 05:17:00;;;;;;;9.35;4.33;;;;;;;10.09;85.93;97222.66;1680159;85;28783;-66
2022/09/29 05:19:26;;;;;;;5.55;3.90;;;;;;;10.08;86.09;97213.42;1680362;85;25682;-66
2022/09/29 05:21:53;;;;;;;9.93;4.00;;;;;;;10.10;85.98;97220.14;1680240;85;25486;-65
2022/09/29 05:24:19;;;;;;;6.83;4.03;;;;;;;10.13;85.98;97213.20;1680302;85;25937;-67
2022/09/29 05:26:45;;;;;;;5.65;3.55;;;;;;;10.16;85.94;97213.28;1680565;85;25701;-66
2022/09/29 05:29:11;;;;;;;8.10;3.52;;;;;;;10.24;86.11;97214.84;1680134;85;27501;-67
2022/09/29 05:31:38;;;;;;;5.90;3.58;;;;;;;10.29;85.84;97205.84;1679956;85;25760;-66
2022/09/29 05:34:04;;;;;;;6.05;3.67;;;;;;;10.29;85.92;97208.58;1680389;85;25677;-66
2022/09/29 05:36:30;;;;;;;4.90;3.42;;;;;;;10.36;86.28;97212.08;1680515;85;26558;-69
2022/09/29 05:38:57;;;;;;;5.92;3.58;;;;;;;10.36;86.07;97203.86;1680478;85;25466;-69
2022/09/29 05:41:25;;;;;;;7.35;4.50;;;;;;;10.33;86.27;97205.92;1680357;85;27683;-70
2022/09/29 05:43:53;;;;;;;8.88;5.03;;;;;;;10.34;86.28;97206.73;1680207;85;25633;-70
2022/09/29 05:46:21;;;;;;;9.10;5.72;;;;;;;10.23;86.35;97216.81;1680484;85;25523;-70
2022/09/29 05:48:54;;;;;;;9.18;5.80;;;;;;;10.21;86.61;97215.54;1680494;85;25945;-70
2022/09/29 05:51:21;;;;;;;12.93;5.92;;;;;;;10.17;86.66;97214.86;1681191;85;25700;-70
2022/09/29 05:53:48;;;;;;;9.43;5.10;;;;;;;10.14;86.95;97219.66;1683724;85;27459;-69
2022/09/29 05:56:18;;;;;;;11.88;5.75;;;;;;;10.11;86.77;97210.80;1683294;85;25465;-67
2022/09/29 05:58:45;;;;;;;272.97;65.50;;;;;;;10.16;87.14;97220.69;1683853;85;25499;-69
2022/09/29 06:01:16;;;;;;;21.85;7.37;;;;;;;10.29;87.42;97218.72;1683428;85;26184;-69
2022/09/29 06:03:43;;;;;;;17.52;7.33;;;;;;;10.30;86.61;97223.05;1683991;85;29736;-69
2022/09/29 06:06:14;;;;;;;10.93;5.28;;;;;;;10.24;86.73;97224.43;1683571;85;27588;-65
2022/09/29 06:08:42;;;;;;;16.65;6.40;;;;;;;10.29;86.85;97232.41;1683684;85;25690;-69
2022/09/29 06:11:16;;;;;;;7.95;4.62;;;;;;;10.40;87.36;97225.28;1683609;85;25685;-69
2022/09/29 06:13:46;;;;;;;8.38;5.15;;;;;;;10.47;86.92;97228.84;1683573;85;25749;-69
2022/09/29 06:16:15;;;;;;;13.68;7.78;;;;;;;10.53;87.20;97234.30;1683825;85;25686;-69
2022/09/29 06:18:42;;;;;;;13.83;7.30;;;;;;;10.61;86.92;97237.23;1634538;85;27353;-67
2022/09/29 06:21:16;;;;;;;9.85;6.05;;;;;;;10.65;86.88;97236.77;1683370;85;25447;-69
2022/09/29 06:23:42;;;;;;;6.85;4.83;;;;;;;10.71;86.59;97244.16;1636376;85;25498;-68
2022/09/29 06:26:13;;;;;;;7.47;4.37;;;;;;;10.73;85.98;97245.39;1683048;85;25753;-66
2022/09/29 06:28:39;;;;;;;12.37;7.10;;;;;;;10.79;86.43;97241.81;1634499;85;25714;-69
2022/09/29 06:31:11;;;;;;;8.13;4.65;;;;;;;10.79;86.31;97244.56;1634441;85;26822;-69
2022/09/29 06:33:38;;;;;;;6.42;4.17;;;;;;;10.72;86.02;97241.63;1635032;85;25863;-68
2022/09/29 06:39:12;;;;;;;8.20;4.62;;;;;;;10.79;86.39;97248.67;1683323;85;25447;-68
2022/09/29 06:41:40;;;;;;;8.45;5.15;;;;;;;10.85;85.98;97247.27;1683480;85;25598;-67
2022/09/29 06:44:07;;;;;;;8.55;4.97;;;;;;;10.90;86.16;97246.22;1613334;85;27328;-70
2022/09/29 06:46:34;;;;;;;12.13;6.42;;;;;;;10.95;86.04;97245.98;1612852;85;25745;-68
2022/09/29 06:49:01;;;;;;;16.20;6.72;;;;;;;11.09;86.42;97252.98;1657550;85;25757;-63
2022/09/29 06:51:28;;;;;;;9.88;5.40;;;;;;;11.22;85.91;97256.42;1653857;85;25737;-70
2022/09/29 06:53:54;;;;;;;6.65;4.67;;;;;;;11.31;85.55;97254.31;1674900;85;25745;-69
2022/09/29 06:56:21;;;;;;;7.05;4.30;;;;;;;11.38;84.82;97254.52;1607604;85;27456;-69
2022/09/29 06:58:47;;;;;;;4.35;3.45;;;;;;;11.45;85.00;97251.72;1630407;85;25638;-63
2022/09/29 07:01:14;;;;;;;5.12;3.90;;;;;;;11.49;83.23;97252.01;1652246;85;25473;-70
2022/09/29 07:03:40;;;;;;;6.70;4.25;;;;;;;11.43;82.92;97239.73;1607655;85;25646;-65
2022/09/29 07:06:09;;;;;;;5.95;3.85;;;;;;;11.46;83.35;97238.22;1607627;85;25555;-70
2022/09/29 07:08:37;;;;;;;5.60;4.17;;;;;;;11.52;83.20;97235.44;1628914;85;28210;-70
2022/09/29 07:11:15;;;;;;;13.03;11.05;;;;;;;11.56;82.88;97239.05;1630030;85;25792;-70
2022/09/29 07:13:41;;;;;;;16.25;9.30;;;;;;;11.58;82.69;97246.92;1675846;85;25624;-69
2022/09/29 07:16:11;;;;;;;29.57;15.60;;;;;;;11.53;82.58;97250.17;1629192;85;26556;-67
2022/09/29 07:18:40;;;;;;;8.13;4.87;;;;;;;11.54;82.78;97259.17;1652133;85;25492;-69
2022/09/29 07:21:10;;;;;;;9.28;4.62;;;;;;;11.54;82.66;97252.31;1630591;85;28211;-67
2022/09/29 07:23:38;;;;;;;8.30;4.53;;;;;;;11.47;82.60;97261.75;1629878;85;31024;-66
2022/09/29 07:26:06;;;;;;;6.65;3.90;;;;;;;11.47;82.96;97268.61;1651073;85;25710;-66
2022/09/29 07:28:33;;;;;;;5.22;3.95;;;;;;;11.48;82.88;97270.19;1607845;85;25740;-67
2022/09/29 07:31:05;;;;;;;6.05;4.20;;;;;;;11.47;82.27;97270.78;1675420;85;25512;-68
2022/09/29 07:33:32;;;;;;;6.62;4.22;;;;;;;11.53;82.47;97271.31;1674299;85;27655;-65
2022/09/29 07:35:59;;;;;;;6.33;3.87;;;;;;;11.57;82.24;97264.55;1607537;85;25560;-68
2022/09/29 07:38:27;;;;;;;7.03;4.67;;;;;;;11.61;82.17;97259.37;1607737;85;25683;-63
2022/09/29 07:40:53;;;;;;;9.43;5.55;;;;;;;11.69;82.01;97258.16;1607826;85;25592;-67
2022/09/29 07:43:20;;;;;;;6.60;5.17;;;;;;;11.79;82.61;97261.16;1652032;85;25674;-70
2022/09/29 07:45:50;;;;;;;8.35;4.65;;;;;;;11.89;82.06;97266.66;1628988;85;28596;-68
2022/09/29 07:48:18;;;;;;;6.25;3.58;;;;;;;12.00;81.24;97266.13;1630321;85;25799;-69
2022/09/29 07:50:45;;;;;;;10.38;5.30;;;;;;;11.99;80.20;97285.11;1650671;85;25619;-66
2022/09/29 07:53:12;;;;;;;8.03;4.12;;;;;;;12.00;81.29;97288.88;1674975;85;26689;-70
2022/09/29 07:55:38;;;;;;;7.85;4.47;;;;;;;12.10;82.82;97286.20;1674894;85;25702;-70
2022/09/29 07:58:06;;;;;;;12.30;5.92;;;;;;;12.17;82.16;97286.34;1650881;85;26683;-69
2022/09/29 08:00:32;;;;;;;6.62;4.78;;;;;;;12.20;81.49;97288.17;1630362;85;25525;-69
2022/09/29 08:03:08;;;;;;;8.48;4.85;;;;;;;12.27;81.80;97284.20;1650724;85;25644;-67
2022/09/29 08:05:35;;;;;;;6.30;3.58;;;;;;;12.36;81.07;97292.23;1652851;85;25754;-69
2022/09/29 08:08:03;;;;;;;7.22;3.60;;;;;;;12.43;80.09;97289.63;1675740;85;25456;-70
2022/09/29 08:10:31;;;;;;;6.78;4.42;;;;;;;12.46;79.92;97295.78;1607519;85;27283;-70
2022/09/29 08:12:58;;;;;;;9.75;5.17;;;;;;;12.54;80.07;97296.16;1630113;85;25959;-69
2022/09/29 08:15:26;;;;;;;8.05;4.05;;;;;;;12.67;79.79;97293.28;1629153;85;25691;-70
2022/09/29 08:17:54;;;;;;;6.87;4.53;;;;;;;12.76;78.60;97301.30;1630222;85;25747;-70
2022/09/29 08:20:22;;;;;;;9.73;5.30;;;;;;;12.82;79.01;97298.48;1607525;85;25577;-70
2022/09/29 08:22:49;;;;;;;7.62;4.62;;;;;;;12.90;79.63;97304.31;1607735;85;28368;-70
2022/09/29 08:25:17;;;;;;;7.00;4.30;;;;;;;12.98;78.54;97307.23;1651260;85;25722;-69
2022/09/29 08:27:44;;;;;;;6.65;4.33;;;;;;;12.98;78.75;97305.26;1652804;85;25545;-70
2022/09/29 08:30:12;;;;;;;8.73;4.30;;;;;;;13.03;78.00;97304.97;1651785;85;25790;-67
2022/09/29 08:32:38;;;;;;;7.65;4.30;;;;;;;13.08;77.41;97309.95;1675370;85;25648;-70
2022/09/29 08:35:06;;;;;;;7.00;4.97;;;;;;;13.08;76.45;97306.64;1651143;85;27466;-69
2022/09/29 08:37:32;;;;;;;8.18;5.30;;;;;;;13.12;77.77;97304.73;1629062;85;25722;-63
2022/09/29 08:39:59;;;;;;;8.15;5.50;;;;;;;13.21;76.90;97307.84;1652093;85;25517;-69
2022/09/29 08:42:33;;;;;;;13.95;7.70;;;;;;;13.34;77.15;97305.14;1628882;85;25735;-67
2022/09/29 08:45:05;;;;;;;12.03;6.55;;;;;;;13.59;75.78;97303.44;1635804;85;25513;-67
2022/09/29 08:47:42;;;;;;;15.85;8.78;;;;;;;13.82;75.80;97305.95;1673722;85;28073;-63
2022/09/29 08:50:32;;;;;;;10.00;7.28;;;;;;;14.12;76.83;97321.75;1651165;85;25597;-70
2022/09/29 08:53:04;;;;;;;10.93;6.70;;;;;;;14.54;75.05;97326.28;1683648;85;25652;-70
2022/09/29 08:55:57;;;;;;;8.90;5.97;;;;;;;14.77;73.29;97330.12;1683107;85;25585;-71
2022/09/29 08:58:24;;;;;;;9.03;6.92;;;;;;;14.85;72.19;97335.18;1683548;85;25468;-70
2022/09/29 09:01:20;;;;;;;8.18;6.12;;;;;;;14.96;72.65;97335.28;1633847;85;27659;-71
2022/09/29 09:03:58;;;;;;;8.00;4.78;;;;;;;15.47;74.88;97339.40;1657431;85;25488;-71
2022/09/29 09:06:53;;;;;;;6.37;4.70;;;;;;;16.11;72.17;97340.36;1683577;85;25626;-71
2022/09/29 09:09:40;;;;;;;6.47;3.90;;;;;;;16.18;69.72;97327.20;1683411;85;25747;-71
2022/09/29 09:12:27;;;;;;;5.33;3.95;;;;;;;16.28;68.02;97333.95;1683087;85;25673;-72
2022/09/29 09:15:19;;;;;;;6.28;4.40;;;;;;;16.40;69.74;97335.03;1679074;85;27474;-71
2022/09/29 09:18:00;;;;;;;7.40;3.95;;;;;;;16.78;69.43;97334.05;1656876;85;25490;-72
2022/09/29 09:20:50;;;;;;;6.47;3.80;;;;;;;16.89;64.82;97334.88;1682865;85;25477;-72
2022/09/29 09:23:27;;;;;;;10.20;5.72;;;;;;;16.65;67.18;97330.23;1683167;85;25780;-73
2022/09/29 09:26:04;;;;;;;7.83;4.42;;;;;;;16.66;67.09;97329.05;1683327;85;25678;-73
2022/09/29 09:28:39;;;;;;;7.62;4.40;;;;;;;16.78;67.82;97330.67;1612694;85;28328;-72
2022/09/29 09:31:22;;;;;;;9.30;4.40;;;;;;;16.89;67.28;97336.26;1632925;85;25898;-72
2022/09/29 09:34:15;;;;;;;6.85;4.00;;;;;;;16.86;67.00;97337.61;1681931;85;25767;-72
2022/09/29 09:36:47;;;;;;;6.75;4.30;;;;;;;16.64;66.48;97339.69;1683140;85;27935;-73
2022/09/29 09:40:00;;;;;;;7.50;3.52;;;;;;;16.59;66.86;97340.08;1634833;85;25741;-73
2022/09/29 09:42:31;;;;;;;5.67;4.05;;;;;;;16.51;63.39;97343.97;1682972;85;27399;-73
2022/09/29 09:45:09;;;;;;;11.70;6.97;;;;;;;16.32;64.33;97349.19;1657392;85;25765;-71
2022/09/29 09:47:56;;;;;;;11.15;6.42;;;;;;;16.25;64.56;97349.92;1682371;85;25708;-72
2022/09/29 09:50:24;;;;;;;7.47;5.05;;;;;;;16.39;65.45;97347.27;1657636;85;25720;-72
2022/09/29 09:52:59;;;;;;;8.98;5.37;;;;;;;16.96;62.24;97349.34;1634051;85;25705;-71
2022/09/29 09:55:26;;;;;;;9.78;6.15;;;;;;;17.14;62.51;97341.13;1656873;85;27342;-71
2022/09/29 09:58:39;;;;;;;10.25;6.17;;;;;;;16.78;58.93;97351.42;1635813;85;25470;-71
2022/09/29 10:01:08;;;;;;;8.85;5.00;;;;;;;16.46;60.85;97347.89;1674499;85;25528;-71
2022/09/29 10:03:37;;;;;;;19.12;7.75;;;;;;;16.46;61.46;97347.89;1635406;85;25635;-69
2022/09/29 10:06:06;;;;;;;27.52;13.38;;;;;;;16.45;60.16;97350.45;1613256;85;25753;-70
2022/09/29 10:08:38;;;;;;;9.48;5.92;;;;;;;16.27;61.92;97347.58;1683788;85;27941;-67
2022/09/29 10:11:29;;;;;;;5.58;3.72;;;;;;;16.17;61.07;97345.73;1614102;85;25760;-68
2022/09/29 10:14:21;;;;;;;10.55;6.35;;;;;;;16.30;57.90;97341.28;1656819;85;25566;-69
2022/09/29 10:17:01;;;;;;;6.95;4.60;;;;;;;16.72;58.11;97343.29;1683385;85;26056;-69
2022/09/29 10:20:00;;;;;;;9.73;4.90;;;;;;;17.33;56.92;97334.25;1657382;85;25717;-69
2022/09/29 10:22:29;;;;;;;6.28;3.80;;;;;;;17.52;56.78;97338.05;1657662;85;27348;-70
2022/09/29 10:25:13;;;;;;;5.15;2.80;;;;;;;17.15;54.27;97339.14;1683262;85;27258;-69
2022/09/29 10:27:45;;;;;;;6.92;4.15;;;;;;;17.34;55.50;97335.25;1657531;85;25525;-69
2022/09/29 10:30:22;;;;;;;5.85;3.45;;;;;;;17.72;55.13;97336.88;1681991;85;25925;-68
2022/09/29 10:32:53;;;;;;;9.73;5.35;;;;;;;17.79;53.51;97336.91;1649830;85;25573;-70
2022/09/29 10:35:25;;;;;;;5.80;3.70;;;;;;;17.61;53.44;97336.28;1683723;85;27505;-69
2022/09/29 10:38:16;;;;;;;4.92;2.90;;;;;;;17.68;53.19;97338.27;1683036;85;25932;-68
2022/09/29 10:41:04;;;;;;;8.50;4.50;;;;;;;18.05;54.13;97347.39;1683714;85;25518;-68
2022/09/29 10:43:43;;;;;;;12.65;7.10;;;;;;;18.43;53.13;97347.75;1660328;85;25598;-69
2022/09/29 10:46:37;;;;;;;5.97;3.55;;;;;;;18.37;51.77;97351.34;1657793;85;25644;-69
2022/09/29 10:49:21;;;;;;;5.78;3.22;;;;;;;18.24;51.87;97353.14;1658950;85;27389;-67
2022/09/29 10:52:05;;;;;;;4.25;2.83;;;;;;;18.58;50.02;97349.13;1632369;85;25502;-65
2022/09/29 10:54:36;;;;;;;5.47;3.37;;;;;;;18.72;50.83;97348.30;1629129;85;25513;-68
2022/09/29 10:57:13;;;;;;;2.58;1.77;;;;;;;19.43;51.44;97346.23;1675413;85;25603;-68
2022/09/29 10:59:49;;;;;;;3.08;1.87;;;;;;;19.62;48.68;97351.86;1675326;85;25958;-68
2022/09/29 11:02:38;;;;;;;3.52;2.00;;;;;;;19.84;48.75;97355.09;1652058;85;27517;-66
2022/09/29 11:05:19;;;;;;;3.15;1.95;;;;;;;20.23;46.88;97351.21;1626774;85;25798;-69
2022/09/29 11:07:49;;;;;;;2.33;1.77;;;;;;;20.57;44.44;97352.48;1675304;85;25694;-69
2022/09/29 11:10:37;;;;;;;6.37;3.17;;;;;;;20.59;43.96;97342.33;1652927;85;25730;-66
2022/09/29 11:13:25;;;;;;;3.45;2.22;;;;;;;19.54;45.96;97323.33;1651757;85;25545;-66
2022/09/29 11:15:51;;;;;;;2.58;2.05;;;;;;;20.13;49.09;97343.17;1652121;85;27503;-67
2022/09/29 11:18:26;;;;;;;3.60;2.30;;;;;;;20.91;45.63;97342.59;1651817;85;25549;-67
2022/09/29 11:21:20;;;;;;;4.20;2.17;;;;;;;21.42;47.06;97340.55;1675300;85;25688;-67
2022/09/29 11:24:09;;;;;;;4.28;2.22;;;;;;;21.84;45.95;97344.53;1645407;85;25764;-65
2022/09/29 11:26:55;;;;;;;4.90;3.08;;;;;;;21.74;45.40;97330.92;1675546;85;25636;-67
2022/09/29 11:29:50;;;;;;;2.08;1.82;;;;;;;21.33;45.06;97345.26;1675268;85;28195;-67
2022/09/29 11:32:41;;;;;;;5.00;2.33;;;;;;;20.64;44.29;97344.67;1675189;85;25471;-67
2022/09/29 11:35:35;;;;;;;3.05;1.72;;;;;;;20.43;44.75;97345.06;1675410;85;25505;-68
2022/09/29 11:38:25;;;;;;;4.45;2.17;;;;;;;19.85;42.83;97338.59;1675470;85;25707;-66
2022/09/29 11:41:14;;;;;;;4.05;2.90;;;;;;;19.11;45.32;97343.80;1675469;85;25701;-69
2022/09/29 11:43:48;;;;;;;3.22;2.20;;;;;;;18.63;47.49;97354.86;1675514;85;27717;-68
2022/09/29 11:46:30;;;;;;;3.00;2.12;;;;;;;18.12;48.12;97349.39;1651827;85;25554;-69
2022/09/29 11:49:17;;;;;;;2.87;1.80;;;;;;;17.67;49.27;97349.94;1649624;85;25680;-70
2022/09/29 11:52:10;;;;;;;3.47;2.15;;;;;;;17.37;48.83;97356.63;1644879;85;25687;-70
2022/09/29 11:55:06;;;;;;;2.05;1.85;;;;;;;16.99;50.77;97354.68;1652714;85;25762;-70
2022/09/29 11:58:05;;;;;;;2.90;1.92;;;;;;;16.70;51.18;97357.31;1543920;92;27432;-70
2022/09/29 12:00:46;;;;;;;3.45;2.27;;;;;;;16.51;52.17;97351.69;1523699;93;25787;-70
2022/09/29 12:03:34;;;;;;;3.72;1.90;;;;;;;16.37;52.76;97352.96;1500607;95;25893;-70
2022/09/29 12:06:46;;;;;;;2.42;1.90;;;;;;;16.41;53.09;97355.95;1500615;95;25738;-70